createdAt,value
2019-04-10T00:00:44.434Z,22.48
2019-04-10T00:03:25.763Z,20.62
2019-04-10T00:05:44.624Z,20.52
2019-04-10T00:08:14.134Z,20.52
2019-04-10T00:10:43.793Z,15.48
2019-04-10T00:13:12.496Z,12.90
2019-04-10T00:15:42.271Z,12.05
2019-04-10T00:18:11.177Z,17.80
2019-04-10T00:20:40.612Z,11.55
2019-04-10T00:23:09.366Z,9.95
2019-04-10T00:25:39.161Z,10.60
2019-04-10T00:28:08.159Z,8.30
2019-04-10T00:30:37.574Z,10.05
2019-04-10T00:33:06.372Z,9.98
2019-04-10T00:35:35.171Z,11.70
2019-04-10T00:38:03.790Z,13.98
2019-04-10T00:40:33.214Z,15.95
2019-04-10T00:43:02.308Z,16.75
2019-04-10T00:45:30.871Z,18.23
2019-04-10T00:47:59.649Z,18.62
2019-04-10T00:50:28.688Z,18.75
2019-04-10T00:52:57.493Z,19.23
2019-04-10T00:55:26.125Z,19.67
2019-04-10T00:57:54.826Z,19.35
2019-04-10T01:00:23.953Z,18.15
2019-04-10T01:02:53.342Z,16.95
2019-04-10T01:05:22.902Z,18.02
2019-04-10T01:07:51.901Z,17.95
2019-04-10T01:10:20.659Z,18.82
2019-04-10T01:12:49.176Z,18.73
2019-04-10T01:15:18.361Z,18.90
2019-04-10T01:17:47.169Z,18.80
2019-04-10T01:20:15.811Z,18.87
2019-04-10T01:22:45.504Z,19.82
2019-04-10T01:25:14.446Z,22.05
2019-04-10T01:27:43.115Z,22.20
2019-04-10T01:30:12.049Z,21.10
2019-04-10T01:32:40.549Z,19.80
2019-04-10T01:35:09.945Z,20.97
2019-04-10T01:37:48.719Z,22.20
2019-04-10T01:40:09.217Z,18.05
2019-04-10T01:42:38.815Z,18.48
2019-04-10T01:45:09.027Z,17.20
2019-04-10T01:47:37.756Z,17.95
2019-04-10T01:50:06.822Z,17.00
2019-04-10T01:52:35.483Z,17.23
2019-04-10T01:55:19.129Z,16.67
2019-04-10T01:57:34.855Z,18.62
2019-04-10T02:00:04.767Z,18.02
2019-04-10T02:02:35.069Z,17.57
2019-04-10T02:05:12.511Z,16.50
2019-04-10T02:07:41.014Z,16.37
2019-04-10T02:10:10.078Z,16.77
2019-04-10T02:12:39.484Z,16.40
2019-04-10T02:15:11.870Z,16.15
2019-04-10T02:17:38.992Z,15.08
2019-04-10T02:20:09.205Z,14.85
2019-04-10T02:22:38.479Z,16.07
2019-04-10T02:25:07.656Z,15.30
2019-04-10T02:27:36.317Z,15.68
2019-04-10T02:30:09.729Z,16.25
2019-04-10T02:32:39.321Z,17.12
2019-04-10T02:35:13.178Z,17.37
2019-04-10T02:37:39.633Z,20.10
2019-04-10T02:40:10.941Z,21.12
2019-04-10T02:42:41.062Z,19.60
2019-04-10T02:45:10.425Z,17.40
2019-04-10T02:47:41.094Z,15.75
2019-04-10T02:50:11.898Z,16.37
2019-04-10T02:52:43.018Z,17.17
2019-04-10T02:55:11.894Z,16.73
2019-04-10T02:57:41.422Z,16.97
2019-04-10T03:00:12.733Z,17.00
2019-04-10T03:02:41.553Z,17.55
2019-04-10T03:05:10.919Z,17.42
2019-04-10T03:07:40.334Z,16.67
2019-04-10T03:10:21.717Z,15.80
2019-04-10T03:12:41.065Z,16.70
2019-04-10T03:15:12.366Z,16.87
2019-04-10T03:17:40.452Z,16.73
2019-04-10T03:20:10.028Z,16.87
2019-04-10T03:22:38.886Z,18.77
2019-04-10T03:25:08.872Z,17.82
2019-04-10T03:27:38.660Z,19.62
2019-04-10T03:30:10.156Z,19.30
2019-04-10T03:32:48.077Z,20.77
2019-04-10T03:35:14.616Z,17.67
2019-04-10T03:37:43.229Z,18.12
2019-04-10T03:40:11.894Z,18.55
2019-04-10T03:42:41.285Z,18.55
2019-04-10T03:45:11.500Z,17.65
2019-04-10T03:47:40.200Z,18.65
2019-04-10T03:50:09.151Z,18.05
2019-04-10T03:52:37.882Z,18.92
2019-04-10T03:55:06.959Z,19.07
2019-04-10T03:57:36.442Z,20.32
2019-04-10T04:00:06.828Z,19.87
2019-04-10T04:02:35.963Z,21.48
2019-04-10T04:05:06.505Z,24.23
2019-04-10T04:07:35.292Z,21.87
2019-04-10T04:10:06.434Z,22.98
2019-04-10T04:12:35.111Z,21.55
2019-04-10T04:15:05.264Z,21.57
2019-04-10T04:17:34.027Z,22.20
2019-04-10T04:20:02.666Z,21.02
2019-04-10T04:22:32.615Z,20.82
2019-04-10T04:25:01.320Z,20.50
2019-04-10T04:27:29.828Z,19.30
2019-04-10T04:29:59.552Z,22.02
2019-04-10T04:32:29.301Z,20.90
2019-04-10T04:34:58.021Z,20.37
2019-04-10T04:37:26.577Z,19.40
2019-04-10T04:39:56.257Z,20.12
2019-04-10T04:42:24.853Z,19.98
2019-04-10T04:44:54.205Z,20.32
2019-04-10T04:47:22.776Z,20.48
2019-04-10T04:49:52.347Z,18.87
2019-04-10T04:52:21.074Z,21.37
2019-04-10T04:54:49.876Z,17.32
2019-04-10T04:57:18.617Z,17.42
2019-04-10T04:59:48.264Z,20.23
2019-04-10T05:02:17.767Z,19.60
2019-04-10T05:04:46.662Z,18.65
2019-04-10T05:07:15.353Z,16.17
2019-04-10T05:09:44.011Z,16.42
2019-04-10T05:12:13.376Z,15.35
2019-04-10T05:14:42.232Z,16.42
2019-04-10T05:17:10.867Z,17.70
2019-04-10T05:19:40.489Z,15.88
2019-04-10T05:22:10.176Z,14.83
2019-04-10T05:24:38.859Z,14.85
2019-04-10T05:27:07.785Z,14.55
2019-04-10T05:29:36.744Z,14.63
2019-04-10T05:32:05.351Z,16.27
2019-04-10T05:34:34.000Z,15.68
2019-04-10T05:37:03.134Z,16.62
2019-04-10T05:39:40.559Z,14.90
2019-04-10T05:42:02.748Z,14.80
2019-04-10T05:44:31.870Z,15.28
2019-04-10T05:47:01.172Z,14.35
2019-04-10T05:49:30.854Z,16.67
2019-04-10T05:51:59.950Z,18.48
2019-04-10T05:54:28.558Z,17.62
2019-04-10T05:56:57.209Z,18.48
2019-04-10T05:59:25.964Z,20.88
2019-04-10T06:01:54.743Z,20.45
2019-04-10T06:04:23.487Z,21.05
2019-04-10T06:06:52.689Z,20.27
2019-04-10T06:09:21.350Z,18.87
2019-04-10T06:11:50.073Z,19.77
2019-04-10T06:14:18.794Z,21.95
2019-04-10T06:16:47.485Z,20.55
2019-04-10T06:19:16.135Z,21.40
2019-04-10T06:21:45.956Z,20.92
2019-04-10T06:24:14.770Z,18.95
2019-04-10T06:26:43.694Z,19.98
2019-04-10T06:29:12.868Z,20.68
2019-04-10T06:31:41.570Z,20.23
2019-04-10T06:34:11.711Z,24.75
2019-04-10T06:36:41.689Z,22.65
2019-04-10T06:39:10.842Z,22.90
2019-04-10T06:41:39.501Z,23.32
2019-04-10T06:44:08.019Z,20.57
2019-04-10T06:46:38.864Z,21.35
2019-04-10T06:49:07.762Z,24.23
2019-04-10T06:51:37.602Z,24.67
2019-04-10T06:54:09.874Z,24.67
2019-04-10T06:56:37.516Z,26.55
2019-04-10T06:59:06.665Z,22.77
2019-04-10T07:01:47.212Z,22.07
2019-04-10T07:04:07.993Z,21.65
2019-04-10T07:06:50.008Z,21.60
2019-04-10T07:09:09.581Z,22.22
2019-04-10T07:11:38.638Z,22.55
2019-04-10T07:14:10.224Z,24.60
2019-04-10T07:16:37.959Z,21.25
2019-04-10T07:19:08.829Z,20.10
2019-04-10T07:21:38.351Z,19.17
2019-04-10T07:24:09.472Z,20.70
2019-04-10T07:26:42.145Z,19.60
2019-04-10T07:29:08.963Z,28.12
2019-04-10T07:31:38.328Z,24.30
2019-04-10T07:34:08.827Z,19.20
2019-04-10T07:36:41.696Z,18.87
2019-04-10T07:39:08.211Z,17.27
2019-04-10T07:41:37.749Z,20.05
2019-04-10T07:44:06.576Z,20.97
2019-04-10T07:46:35.357Z,17.92
2019-04-10T07:49:04.015Z,18.50
2019-04-10T07:51:32.644Z,17.32
2019-04-10T07:54:01.914Z,18.37
2019-04-10T07:56:31.192Z,15.60
2019-04-10T07:59:00.560Z,15.85
2019-04-10T08:01:29.270Z,17.00
2019-04-10T08:03:57.774Z,15.10
2019-04-10T08:06:27.700Z,18.20
2019-04-10T08:08:56.543Z,16.10
2019-04-10T08:11:26.119Z,19.23
2019-04-10T08:13:56.032Z,18.50
2019-04-10T08:16:25.369Z,18.70
2019-04-10T08:18:54.197Z,19.00
2019-04-10T08:21:23.935Z,20.60
2019-04-10T08:23:53.067Z,20.80
2019-04-10T08:26:22.737Z,19.48
2019-04-10T08:28:51.715Z,20.68
2019-04-10T08:31:22.213Z,20.82
2019-04-10T08:33:51.068Z,20.80
2019-04-10T08:36:19.756Z,19.67
2019-04-10T08:38:48.929Z,19.23
2019-04-10T08:41:17.420Z,20.55
2019-04-10T08:43:46.105Z,22.40
2019-04-10T08:46:14.753Z,18.80
2019-04-10T08:48:43.430Z,17.85
2019-04-10T08:51:12.217Z,15.65
2019-04-10T08:53:40.871Z,16.12
2019-04-10T08:56:10.660Z,17.10
2019-04-10T08:58:39.567Z,18.42
2019-04-10T09:01:09.144Z,19.32
2019-04-10T09:03:37.756Z,18.85
2019-04-10T09:06:07.202Z,22.00
2019-04-10T09:08:37.057Z,16.40
2019-04-10T09:11:07.010Z,15.50
2019-04-10T09:13:36.832Z,12.73
2019-04-10T09:16:06.595Z,14.35
2019-04-10T09:18:35.461Z,14.95
2019-04-10T09:21:04.936Z,14.03
2019-04-10T09:23:42.897Z,14.53
2019-04-10T09:26:03.978Z,14.63
2019-04-10T09:28:32.812Z,17.25
2019-04-10T09:31:01.776Z,14.00
2019-04-10T09:33:32.332Z,13.45
2019-04-10T09:36:01.191Z,16.25
2019-04-10T09:38:30.640Z,13.18
2019-04-10T09:40:59.429Z,12.98
2019-04-10T09:43:28.312Z,14.68
2019-04-10T09:45:58.039Z,14.95
2019-04-10T09:48:26.523Z,13.60
2019-04-10T09:50:56.078Z,14.35
2019-04-10T09:53:24.746Z,13.72
2019-04-10T09:55:54.490Z,13.43
2019-04-10T09:58:23.990Z,14.18
2019-04-10T10:00:52.627Z,14.50
2019-04-10T10:03:21.264Z,13.98
2019-04-10T10:05:51.018Z,11.75
2019-04-10T10:08:19.628Z,12.15
2019-04-10T10:10:49.163Z,12.63
2019-04-10T10:13:18.312Z,13.45
2019-04-10T10:15:46.834Z,12.78
2019-04-10T10:18:15.472Z,13.93
2019-04-10T10:20:44.335Z,15.15
2019-04-10T10:23:13.745Z,16.27
2019-04-10T10:25:42.279Z,15.23
2019-04-10T10:28:11.806Z,15.23
2019-04-10T10:30:40.461Z,16.02
2019-04-10T10:33:09.860Z,13.30
2019-04-10T10:35:39.050Z,13.30
2019-04-10T10:38:08.439Z,15.30
2019-04-10T10:40:37.110Z,14.20
2019-04-10T10:43:05.713Z,12.78
2019-04-10T10:45:34.721Z,14.87
2019-04-10T10:48:03.486Z,13.83
2019-04-10T10:50:33.165Z,12.35
2019-04-10T10:53:01.927Z,11.43
2019-04-10T10:55:31.739Z,10.53
2019-04-10T10:58:01.682Z,10.30
2019-04-10T11:00:31.419Z,11.00
2019-04-10T11:03:00.247Z,11.57
2019-04-10T11:05:30.800Z,11.85
2019-04-10T11:07:59.909Z,10.48
2019-04-10T11:10:30.027Z,12.25
2019-04-10T11:12:59.993Z,10.60
2019-04-10T11:15:28.959Z,11.03
2019-04-10T11:17:57.861Z,11.85
2019-04-10T11:20:27.963Z,13.15
2019-04-10T11:22:57.727Z,9.73
2019-04-10T11:25:26.432Z,9.55
2019-04-10T11:27:56.537Z,10.20
2019-04-10T11:30:26.836Z,10.88
2019-04-10T11:32:55.746Z,10.48
2019-04-10T11:35:24.426Z,11.30
2019-04-10T11:37:56.187Z,10.65
2019-04-10T11:40:23.647Z,10.70
2019-04-10T11:42:54.234Z,10.03
2019-04-10T11:45:28.295Z,11.20
2019-04-10T11:47:54.491Z,11.18
2019-04-10T11:50:25.417Z,11.73
2019-04-10T11:52:56.096Z,11.83
2019-04-10T11:55:27.004Z,12.82
2019-04-10T11:57:55.395Z,12.73
2019-04-10T12:00:47.498Z,13.45
2019-04-10T12:03:10.652Z,12.10
2019-04-10T12:05:41.292Z,10.72
2019-04-10T12:13:12.477Z,7.67
2019-04-10T12:15:42.922Z,7.10
2019-04-10T12:18:12.018Z,6.72
2019-04-10T12:20:41.050Z,7.80
2019-04-10T12:23:10.470Z,7.28
2019-04-10T12:25:39.127Z,7.55
2019-04-10T12:28:07.825Z,6.45
2019-04-10T12:30:37.459Z,8.95
2019-04-10T12:33:07.484Z,6.80
2019-04-10T12:35:36.153Z,7.28
2019-04-10T12:38:08.136Z,7.78
2019-04-10T12:40:37.591Z,8.08
2019-04-10T12:43:05.757Z,10.85
2019-04-10T12:45:34.317Z,8.15
2019-04-10T12:48:04.085Z,7.90
2019-04-10T12:50:32.874Z,5.87
2019-04-10T12:53:01.502Z,7.20
2019-04-10T12:55:30.465Z,8.00
2019-04-10T12:58:06.529Z,10.00
2019-04-10T13:00:29.277Z,8.13
2019-04-10T13:02:58.690Z,8.93
2019-04-10T13:05:27.419Z,8.73
2019-04-10T13:07:56.176Z,7.95
2019-04-10T13:10:25.294Z,10.15
2019-04-10T13:12:54.006Z,8.75
2019-04-10T13:15:23.404Z,8.38
2019-04-10T13:17:53.107Z,9.53
2019-04-10T13:20:21.937Z,10.65
2019-04-10T13:22:50.808Z,10.78
2019-04-10T13:25:19.831Z,13.68
2019-04-10T13:27:48.407Z,7.62
2019-04-10T13:30:17.305Z,9.08
2019-04-10T13:32:45.980Z,8.28
2019-04-10T13:35:15.795Z,11.93
2019-04-10T13:37:45.501Z,10.08
2019-04-10T13:40:15.211Z,9.33
2019-04-10T13:42:43.835Z,9.05
2019-04-10T13:45:14.974Z,9.78
2019-04-10T13:47:44.912Z,8.23
2019-04-10T13:50:14.658Z,8.53
2019-04-10T13:52:44.895Z,9.68
2019-04-10T13:55:13.582Z,10.58
2019-04-10T13:57:42.422Z,9.08
2019-04-10T14:00:13.405Z,7.80
2019-04-10T14:02:41.950Z,8.68
2019-04-10T14:05:15.635Z,11.00
2019-04-10T14:07:44.604Z,11.18
2019-04-10T14:10:15.537Z,8.50
2019-04-10T14:12:44.071Z,8.53
2019-04-10T14:15:13.926Z,9.08
2019-04-10T14:17:42.523Z,9.03
2019-04-10T14:20:13.106Z,9.30
2019-04-10T14:22:46.546Z,7.85
2019-04-10T14:25:17.721Z,7.65
2019-04-10T14:27:46.673Z,13.48
2019-04-10T14:30:23.015Z,11.00
2019-04-10T14:32:51.699Z,8.58
2019-04-10T14:35:20.443Z,10.13
2019-04-10T14:37:49.673Z,10.55
2019-04-10T14:40:18.576Z,13.80
2019-04-10T14:42:47.322Z,12.05
2019-04-10T14:45:15.967Z,11.60
2019-04-10T14:47:44.565Z,11.15
2019-04-10T14:50:13.716Z,10.28
2019-04-10T14:52:43.349Z,9.95
2019-04-10T14:55:12.457Z,9.68
2019-04-10T14:57:41.258Z,12.95
2019-04-10T15:00:17.959Z,13.15
2019-04-10T15:02:46.568Z,10.10
2019-04-10T15:05:15.512Z,9.80
2019-04-10T15:07:44.832Z,10.58
2019-04-10T15:10:14.593Z,9.98
2019-04-10T15:12:43.826Z,10.98
2019-04-10T15:15:12.590Z,12.93
2019-04-10T15:17:42.192Z,10.70
2019-04-10T15:20:11.207Z,10.80
2019-04-10T15:22:40.075Z,10.32
2019-04-10T15:25:09.044Z,8.85
2019-04-10T15:27:37.766Z,10.08
2019-04-10T15:30:08.417Z,9.48
2019-04-10T15:32:37.792Z,9.90
2019-04-10T15:35:06.899Z,9.60
2019-04-10T15:37:35.460Z,10.23
2019-04-10T15:40:17.977Z,9.65
2019-04-10T15:42:37.382Z,9.83
2019-04-10T15:45:07.918Z,10.85
2019-04-10T15:47:37.443Z,10.15
2019-04-10T15:50:08.558Z,11.55
2019-04-10T15:52:37.568Z,12.47
2019-04-10T15:55:07.785Z,10.45
2019-04-10T15:57:47.013Z,9.73
2019-04-10T16:00:10.717Z,11.55
2019-04-10T16:02:40.519Z,12.03
2019-04-10T16:05:09.543Z,10.53
2019-04-10T16:07:38.385Z,11.03
2019-04-10T16:10:19.025Z,10.05
2019-04-10T16:12:48.084Z,10.78
2019-04-10T16:15:17.318Z,10.10
2019-04-10T16:18:05.942Z,10.88
2019-04-10T16:20:34.978Z,10.85
2019-04-10T16:23:12.263Z,13.53
2019-04-10T16:25:43.402Z,13.38
2019-04-10T16:28:12.650Z,14.90
2019-04-10T16:30:41.472Z,28.25
2019-04-10T16:33:11.179Z,11.05
2019-04-10T16:35:40.157Z,12.93
2019-04-10T16:38:09.149Z,13.65
2019-04-10T16:40:38.264Z,10.58
2019-04-10T16:43:08.008Z,11.50
2019-04-10T16:45:36.962Z,11.05
2019-04-10T16:48:06.430Z,11.20
2019-04-10T16:50:36.289Z,12.33
2019-04-10T16:53:05.725Z,14.18
2019-04-10T16:55:34.627Z,12.43
2019-04-10T16:58:03.429Z,13.00
2019-04-10T17:00:32.257Z,13.75
2019-04-10T17:03:01.910Z,11.78
2019-04-10T17:05:33.609Z,10.30
2019-04-10T17:08:01.446Z,11.20
2019-04-10T17:10:30.320Z,11.95
2019-04-10T17:12:58.796Z,11.25
2019-04-10T17:15:28.175Z,10.90
2019-04-10T17:17:57.028Z,10.88
2019-04-10T17:20:27.238Z,11.83
2019-04-10T17:22:56.380Z,11.40
2019-04-10T17:25:26.248Z,11.55
2019-04-10T17:27:56.313Z,11.70
2019-04-10T17:30:25.470Z,11.70
2019-04-10T17:32:54.388Z,13.30
2019-04-10T17:35:23.447Z,13.45
2019-04-10T17:37:51.963Z,12.90
2019-04-10T17:40:29.767Z,13.53
2019-04-10T17:42:52.738Z,11.85
2019-04-10T17:45:22.989Z,12.10
2019-04-10T17:47:51.760Z,18.17
2019-04-10T17:50:22.358Z,16.57
2019-04-10T17:52:51.374Z,16.02
2019-04-10T17:55:20.127Z,15.53
2019-04-10T17:57:48.963Z,25.50
2019-04-10T18:00:27.486Z,22.22
2019-04-10T18:02:57.167Z,18.15
2019-04-10T18:05:26.601Z,13.80
2019-04-10T18:07:55.228Z,11.65
2019-04-10T18:10:24.698Z,13.80
2019-04-10T18:12:54.615Z,12.73
2019-04-10T18:15:24.129Z,12.18
2019-04-10T18:17:53.425Z,13.03
2019-04-10T18:20:22.201Z,13.20
2019-04-10T18:22:51.876Z,12.10
2019-04-10T18:25:20.566Z,12.93
2019-04-10T18:27:49.228Z,13.10
2019-04-10T18:30:19.497Z,13.32
2019-04-10T18:32:48.180Z,13.43
2019-04-10T18:35:16.931Z,18.15
2019-04-10T18:37:47.680Z,18.12
2019-04-10T18:40:16.355Z,18.40
2019-04-10T18:42:45.404Z,24.95
2019-04-10T18:45:14.410Z,35.65
2019-04-10T18:47:44.066Z,32.17
2019-04-10T18:50:13.054Z,30.77
2019-04-10T18:52:41.654Z,33.30
2019-04-10T18:55:10.406Z,26.90
2019-04-10T18:57:39.061Z,31.62
2019-04-10T19:00:26.654Z,31.33
2019-04-10T19:03:13.137Z,34.10
2019-04-10T19:05:49.666Z,34.38
2019-04-10T19:08:19.682Z,34.03
2019-04-10T19:10:48.471Z,36.70
2019-04-10T19:13:17.285Z,36.83
2019-04-10T19:15:46.962Z,37.17
2019-04-10T19:18:15.809Z,38.17
2019-04-10T19:20:44.655Z,39.20
2019-04-10T19:23:13.226Z,38.35
2019-04-10T19:25:43.379Z,36.80
2019-04-10T19:28:12.840Z,33.90
2019-04-10T19:30:43.565Z,42.58
2019-04-10T19:33:12.237Z,38.13
2019-04-10T19:35:41.374Z,35.15
2019-04-10T19:38:11.349Z,33.70
2019-04-10T19:40:40.374Z,32.88
2019-04-10T19:43:10.241Z,30.68
2019-04-10T19:45:39.801Z,28.85
2019-04-10T19:48:08.952Z,35.60
2019-04-10T19:50:39.060Z,31.45
2019-04-10T19:53:07.572Z,31.20
2019-04-10T19:55:36.346Z,30.75
2019-04-10T19:58:05.931Z,32.60
2019-04-10T20:00:36.783Z,32.98
2019-04-10T20:03:05.745Z,32.55
2019-04-10T20:05:34.418Z,29.25
2019-04-10T20:08:03.145Z,28.50
2019-04-10T20:10:31.729Z,29.35
2019-04-10T20:13:01.369Z,26.42
2019-04-10T20:15:30.773Z,28.17
2019-04-10T20:18:00.109Z,27.52
2019-04-10T20:20:29.057Z,34.83
2019-04-10T20:22:58.277Z,29.42
2019-04-10T20:25:27.227Z,24.23
2019-04-10T20:27:56.369Z,26.07
2019-04-10T20:30:27.883Z,23.67
2019-04-10T20:32:56.593Z,21.48
2019-04-10T20:35:25.208Z,26.35
2019-04-10T20:37:55.350Z,26.20
2019-04-10T20:40:24.121Z,24.32
2019-04-10T20:42:52.698Z,28.23
2019-04-10T20:45:23.142Z,26.93
2019-04-10T20:47:52.031Z,24.67
2019-04-10T20:50:20.660Z,26.52
2019-04-10T20:52:49.448Z,32.10
2019-04-10T20:55:18.214Z,26.68
2019-04-10T20:57:48.157Z,28.38
2019-04-10T21:00:22.396Z,27.95
2019-04-10T21:02:51.059Z,30.40
2019-04-10T21:05:19.913Z,27.90
2019-04-10T21:07:48.439Z,26.60
2019-04-10T21:10:17.177Z,27.22
2019-04-10T21:12:45.760Z,28.67
2019-04-10T21:15:14.452Z,34.40
2019-04-10T21:17:43.047Z,32.20
2019-04-10T21:20:13.561Z,27.67
2019-04-10T21:22:45.241Z,27.15
2019-04-10T21:25:14.906Z,25.92
2019-04-10T21:27:44.099Z,25.50
2019-04-10T21:30:31.767Z,25.50
2019-04-10T21:33:17.099Z,29.92
2019-04-10T21:35:45.837Z,23.35
2019-04-10T21:38:15.130Z,23.10
2019-04-10T21:40:43.715Z,21.10
2019-04-10T21:43:12.383Z,20.10
2019-04-10T21:45:41.351Z,18.82
2019-04-10T21:48:10.530Z,16.73
2019-04-10T21:50:39.813Z,17.32
2019-04-10T21:53:08.515Z,18.17
2019-04-10T21:55:37.495Z,21.45
2019-04-10T21:58:06.297Z,17.82
2019-04-10T22:00:39.415Z,18.75
2019-04-10T22:03:09.062Z,18.30
2019-04-10T22:05:39.615Z,17.73
2019-04-10T22:08:12.606Z,18.35
2019-04-10T22:10:45.476Z,18.95
2019-04-10T22:13:14.115Z,16.70
2019-04-10T22:15:44.942Z,15.58
2019-04-10T22:18:14.780Z,15.75
2019-04-10T22:20:43.739Z,16.05
2019-04-10T22:23:12.472Z,25.95
2019-04-10T22:25:42.358Z,16.65
2019-04-10T22:28:10.997Z,15.90
2019-04-10T22:30:39.680Z,17.07
2019-04-10T22:33:08.574Z,17.30
2019-04-10T22:35:37.240Z,17.40
2019-04-10T22:38:06.147Z,17.45
2019-04-10T22:40:34.892Z,18.02
2019-04-10T22:43:03.460Z,19.80
2019-04-10T22:45:32.843Z,18.05
2019-04-10T22:48:01.480Z,18.87
2019-04-10T22:50:31.024Z,20.20
2019-04-10T22:52:59.817Z,24.02
2019-04-10T22:55:28.562Z,24.72
2019-04-10T22:57:57.159Z,20.40
2019-04-10T23:00:32.640Z,23.80
2019-04-10T23:03:02.900Z,22.20
2019-04-10T23:05:32.309Z,23.45
2019-04-10T23:08:01.273Z,22.95
2019-04-10T23:10:29.898Z,21.85
2019-04-10T23:13:02.907Z,22.25
2019-04-10T23:15:28.999Z,21.00
2019-04-10T23:17:57.506Z,21.75
2019-04-10T23:20:26.282Z,21.75
2019-04-10T23:22:54.999Z,19.90
2019-04-10T23:25:24.699Z,23.83
2019-04-10T23:27:56.025Z,19.25
2019-04-10T23:30:24.641Z,18.37
2019-04-10T23:32:53.607Z,19.27
2019-04-10T23:35:22.344Z,18.75
2019-04-10T23:37:51.200Z,17.62
2019-04-10T23:40:21.032Z,19.27
2019-04-10T23:43:01.279Z,19.50
2019-04-10T23:45:19.996Z,18.57
2019-04-10T23:47:48.815Z,19.27
2019-04-10T23:50:18.571Z,18.27
2019-04-10T23:52:47.885Z,17.98
2019-04-10T23:55:17.810Z,18.62
2019-04-10T23:57:46.539Z,17.67
